createdAt,value
2018-07-07T00:00:17.251Z,17.60
2018-07-07T00:02:44.834Z,17.60
2018-07-07T00:05:12.402Z,17.70
2018-07-07T00:07:40.006Z,17.60
2018-07-07T00:10:08.345Z,17.50
2018-07-07T00:12:35.911Z,17.50
2018-07-07T00:15:03.520Z,17.50
2018-07-07T00:17:31.098Z,17.50
2018-07-07T00:19:58.668Z,17.50
2018-07-07T00:22:26.289Z,17.50
2018-07-07T00:24:54.627Z,17.40
2018-07-07T00:27:22.203Z,17.40
2018-07-07T00:29:49.807Z,17.40
2018-07-07T00:32:18.149Z,17.30
2018-07-07T00:34:45.720Z,17.30
2018-07-07T00:37:13.325Z,17.30
2018-07-07T00:39:40.899Z,17.30
2018-07-07T00:42:08.473Z,17.20
2018-07-07T00:44:36.663Z,17.20
2018-07-07T00:47:04.230Z,17.10
2018-07-07T00:49:31.805Z,17.10
2018-07-07T00:51:59.413Z,17.20
2018-07-07T00:54:26.993Z,17.20
2018-07-07T00:56:54.562Z,17.10
2018-07-07T00:59:22.165Z,17.10
2018-07-07T01:01:50.507Z,17.00
2018-07-07T01:04:18.077Z,17.00
2018-07-07T01:06:46.043Z,17.00
2018-07-07T01:09:13.610Z,17.00
2018-07-07T01:11:41.178Z,16.90
2018-07-07T01:14:08.782Z,17.00
2018-07-07T01:16:36.349Z,17.00
2018-07-07T01:19:03.923Z,17.00
2018-07-07T01:21:31.535Z,16.90
2018-07-07T01:23:59.870Z,16.80
2018-07-07T01:26:27.443Z,16.80
2018-07-07T01:28:55.068Z,16.80
2018-07-07T01:31:22.644Z,16.80
2018-07-07T01:33:50.251Z,16.70
2018-07-07T01:36:17.864Z,16.70
2018-07-07T01:38:45.435Z,16.70
2018-07-07T01:41:13.001Z,16.70
2018-07-07T01:43:40.620Z,16.60
2018-07-07T01:46:08.958Z,16.60
2018-07-07T01:48:36.575Z,16.60
2018-07-07T01:51:04.156Z,16.60
2018-07-07T01:53:31.725Z,16.60
2018-07-07T01:55:59.307Z,16.50
2018-07-07T01:58:26.917Z,16.50
2018-07-07T02:00:55.259Z,16.60
2018-07-07T02:03:22.835Z,16.60
2018-07-07T02:05:50.441Z,16.60
2018-07-07T02:08:18.019Z,16.70
2018-07-07T02:10:45.587Z,16.70
2018-07-07T02:13:13.196Z,16.60
2018-07-07T02:15:41.534Z,16.50
2018-07-07T02:18:09.114Z,16.40
2018-07-07T02:20:36.717Z,16.40
2018-07-07T02:23:04.297Z,16.40
2018-07-07T02:25:31.882Z,16.30
2018-07-07T02:27:59.491Z,16.30
2018-07-07T02:30:27.062Z,16.30
2018-07-07T02:32:54.632Z,16.40
2018-07-07T02:35:22.851Z,16.40
2018-07-07T02:37:50.431Z,16.30
2018-07-07T02:40:18.775Z,16.40
2018-07-07T02:42:46.381Z,16.30
2018-07-07T02:45:14.724Z,16.30
2018-07-07T02:47:42.313Z,16.30
2018-07-07T02:50:12.826Z,16.30
2018-07-07T02:52:40.396Z,16.40
2018-07-07T02:55:07.968Z,16.30
2018-07-07T02:57:35.587Z,16.30
2018-07-07T03:00:03.163Z,16.20
2018-07-07T03:02:30.741Z,16.10
2018-07-07T03:04:58.347Z,16.10
2018-07-07T03:09:39.595Z,16.40
2018-07-07T03:12:07.229Z,16.30
2018-07-07T03:14:34.786Z,16.20
2018-07-07T03:17:02.358Z,16.20
2018-07-07T03:19:29.993Z,16.10
2018-07-07T03:21:57.564Z,16.00
2018-07-07T03:24:25.142Z,15.90
2018-07-07T03:26:52.751Z,15.90
2018-07-07T03:29:21.091Z,15.80
2018-07-07T03:31:48.670Z,15.80
2018-07-07T03:34:16.277Z,15.80
2018-07-07T03:36:43.850Z,15.80
2018-07-07T03:39:11.420Z,15.90
2018-07-07T03:41:39.051Z,15.80
2018-07-07T03:44:06.629Z,15.80
2018-07-07T03:46:34.620Z,15.80
2018-07-07T03:49:02.230Z,15.70
2018-07-07T03:51:30.579Z,15.70
2018-07-07T03:53:58.158Z,15.70
2018-07-07T03:56:25.765Z,15.70
2018-07-07T03:58:53.359Z,15.80
2018-07-07T04:01:20.922Z,16.00
2018-07-07T04:03:50.184Z,15.90
2018-07-07T04:06:16.454Z,15.90
2018-07-07T04:08:44.036Z,15.80
2018-07-07T04:11:11.651Z,15.80
2018-07-07T04:13:39.226Z,15.70
2018-07-07T04:16:06.799Z,15.70
2018-07-07T04:18:34.411Z,15.60
2018-07-07T04:21:01.991Z,15.60
2018-07-07T04:23:29.570Z,15.60
2018-07-07T04:25:57.198Z,15.60
2018-07-07T04:28:24.776Z,15.60
2018-07-07T04:30:52.362Z,15.50
2018-07-07T04:33:19.972Z,15.50
2018-07-07T04:35:48.308Z,15.50
2018-07-07T04:38:15.886Z,15.50
2018-07-07T04:40:43.500Z,15.50
2018-07-07T04:43:11.097Z,15.70
2018-07-07T04:45:38.670Z,15.90
2018-07-07T04:48:06.773Z,15.90
2018-07-07T04:50:35.119Z,16.00
2018-07-07T04:53:02.692Z,16.00
2018-07-07T04:55:30.589Z,16.00
2018-07-07T04:57:58.103Z,15.90
2018-07-07T05:00:25.683Z,15.90
2018-07-07T05:02:53.289Z,15.80
2018-07-07T05:05:20.866Z,15.90
2018-07-07T05:07:48.433Z,15.90
2018-07-07T05:10:16.064Z,15.90
2018-07-07T05:12:43.635Z,15.90
2018-07-07T05:15:11.207Z,15.90
2018-07-07T05:17:38.808Z,15.90
2018-07-07T05:20:06.391Z,15.90
2018-07-07T05:22:34.721Z,16.00
2018-07-07T05:25:02.340Z,16.00
2018-07-07T05:27:30.671Z,16.10
2018-07-07T05:29:58.250Z,16.10
2018-07-07T05:32:25.893Z,16.20
2018-07-07T05:34:53.462Z,16.30
2018-07-07T05:37:21.047Z,16.40
2018-07-07T05:39:48.639Z,16.50
2018-07-07T05:42:16.211Z,16.50
2018-07-07T05:44:43.797Z,16.60
2018-07-07T05:47:11.400Z,16.70
2018-07-07T05:49:38.975Z,16.70
2018-07-07T05:52:06.542Z,16.70
2018-07-07T05:54:34.768Z,16.80
2018-07-07T05:57:02.349Z,16.80
2018-07-07T05:59:29.918Z,16.90
2018-07-07T06:01:58.299Z,17.10
2018-07-07T06:04:26.658Z,17.20
2018-07-07T06:06:54.229Z,17.20
2018-07-07T06:09:21.838Z,17.20
2018-07-07T06:11:49.402Z,17.30
2018-07-07T06:14:16.994Z,17.30
2018-07-07T06:16:45.125Z,17.40
2018-07-07T06:19:12.758Z,17.40
2018-07-07T06:21:40.353Z,17.50
2018-07-07T06:24:07.961Z,17.60
2018-07-07T06:26:35.569Z,17.70
2018-07-07T06:29:03.102Z,17.70
2018-07-07T06:31:30.752Z,17.80
2018-07-07T06:33:58.321Z,17.90
2018-07-07T06:36:26.658Z,18.00
2018-07-07T06:38:54.269Z,18.00
2018-07-07T06:41:21.860Z,18.00
2018-07-07T06:43:49.547Z,18.10
2018-07-07T06:46:17.058Z,18.10
2018-07-07T06:48:45.395Z,18.30
2018-07-07T06:51:12.966Z,18.30
2018-07-07T06:53:40.633Z,18.40
2018-07-07T06:56:08.197Z,18.50
2018-07-07T06:58:35.770Z,18.60
2018-07-07T07:01:03.770Z,18.60
2018-07-07T07:03:32.135Z,18.90
2018-07-07T07:05:59.702Z,18.90
2018-07-07T07:08:28.085Z,19.20
2018-07-07T07:10:56.421Z,19.20
2018-07-07T07:13:24.012Z,19.30
2018-07-07T07:15:51.619Z,19.40
2018-07-07T07:18:19.201Z,19.60
2018-07-07T07:20:46.804Z,19.70
2018-07-07T07:23:15.140Z,19.90
2018-07-07T07:25:42.704Z,19.90
2018-07-07T07:28:10.276Z,20.00
2018-07-07T07:30:38.251Z,20.20
2018-07-07T07:33:05.915Z,20.40
2018-07-07T07:35:33.401Z,20.50
2018-07-07T07:38:01.944Z,20.60
2018-07-07T07:40:29.537Z,20.70
2018-07-07T07:42:57.101Z,20.70
2018-07-07T07:45:25.485Z,20.80
2018-07-07T07:47:53.057Z,20.80
2018-07-07T07:50:21.400Z,21.00
2018-07-07T07:52:49.030Z,21.00
2018-07-07T07:55:16.598Z,21.10
2018-07-07T07:57:44.173Z,21.20
2018-07-07T08:00:12.400Z,21.30
2018-07-07T08:02:39.911Z,21.40
2018-07-07T08:05:07.490Z,21.50
2018-07-07T08:07:36.170Z,21.70
2018-07-07T08:10:03.758Z,21.80
2018-07-07T08:12:32.099Z,22.20
2018-07-07T08:14:59.717Z,22.10
2018-07-07T08:17:27.287Z,22.20
2018-07-07T08:19:54.863Z,22.30
2018-07-07T08:22:22.484Z,22.50
2018-07-07T08:24:50.819Z,22.70
2018-07-07T08:27:18.385Z,22.60
2018-07-07T08:29:45.996Z,22.80
2018-07-07T08:32:14.329Z,22.90
2018-07-07T08:34:41.892Z,22.90
2018-07-07T08:37:09.549Z,23.00
2018-07-07T08:39:37.110Z,23.20
2018-07-07T08:42:04.739Z,23.30
2018-07-07T08:44:32.332Z,23.30
2018-07-07T08:46:59.901Z,23.50
2018-07-07T08:49:27.513Z,23.70
2018-07-07T08:51:55.122Z,23.80
2018-07-07T08:54:22.692Z,23.90
2018-07-07T08:56:50.260Z,24.00
2018-07-07T08:59:17.870Z,24.20
2018-07-07T09:01:45.443Z,24.40
2018-07-07T09:04:13.010Z,24.50
2018-07-07T09:06:41.035Z,24.50
2018-07-07T09:09:09.365Z,24.50
2018-07-07T09:11:36.932Z,24.50
2018-07-07T09:14:04.902Z,24.50
2018-07-07T09:16:32.469Z,24.60
2018-07-07T09:19:00.032Z,24.70
2018-07-07T09:21:27.620Z,24.70
2018-07-07T09:23:55.178Z,24.80
2018-07-07T09:26:22.743Z,24.90
2018-07-07T09:28:50.362Z,25.00
2018-07-07T09:31:18.238Z,25.10
2018-07-07T09:33:45.797Z,25.20
2018-07-07T09:36:13.411Z,25.30
2018-07-07T09:38:41.753Z,25.30
2018-07-07T09:41:09.311Z,25.30
2018-07-07T09:43:37.785Z,25.30
2018-07-07T09:46:05.363Z,25.40
2018-07-07T09:48:32.913Z,25.40
2018-07-07T09:51:01.494Z,25.50
2018-07-07T09:53:29.060Z,25.50
2018-07-07T09:55:56.620Z,25.60
2018-07-07T09:58:24.213Z,25.50
2018-07-07T10:00:51.799Z,25.50
2018-07-07T10:03:19.373Z,25.40
2018-07-07T10:05:46.992Z,25.40
2018-07-07T10:08:14.546Z,25.40
2018-07-07T10:10:42.111Z,25.40
2018-07-07T10:13:09.706Z,25.40
2018-07-07T10:15:37.269Z,25.60
2018-07-07T10:18:04.843Z,25.60
2018-07-07T10:20:32.429Z,25.60
2018-07-07T10:22:59.993Z,25.70
2018-07-07T10:25:27.568Z,25.80
2018-07-07T10:27:55.170Z,25.90
2018-07-07T10:30:22.726Z,26.00
2018-07-07T10:32:51.050Z,26.20
2018-07-07T10:35:18.651Z,26.20
2018-07-07T10:37:46.978Z,26.20
2018-07-07T10:40:14.544Z,26.20
2018-07-07T10:42:42.182Z,26.20
2018-07-07T10:45:09.738Z,26.20
2018-07-07T10:47:37.303Z,26.30
2018-07-07T10:50:05.729Z,26.30
2018-07-07T10:52:33.289Z,26.30
2018-07-07T10:55:00.854Z,26.40
2018-07-07T10:57:28.497Z,26.40
2018-07-07T10:59:56.058Z,26.60
2018-07-07T11:02:23.615Z,26.60
2018-07-07T11:04:51.228Z,26.70
2018-07-07T11:07:19.557Z,26.70
2018-07-07T11:09:47.121Z,26.70
2018-07-07T11:12:14.726Z,26.70
2018-07-07T11:14:42.293Z,26.70
2018-07-07T11:17:09.904Z,26.70
2018-07-07T11:19:37.529Z,26.70
2018-07-07T11:22:05.864Z,26.70
2018-07-07T11:24:33.458Z,26.70
2018-07-07T11:27:01.052Z,26.80
2018-07-07T11:29:28.615Z,26.80
2018-07-07T11:31:56.170Z,26.90
2018-07-07T11:34:24.989Z,27.00
2018-07-07T11:36:52.561Z,27.00
2018-07-07T11:39:20.119Z,27.10
2018-07-07T11:41:48.184Z,27.10
2018-07-07T11:44:15.872Z,27.10
2018-07-07T11:46:43.421Z,27.20
2018-07-07T11:49:11.030Z,27.10
2018-07-07T11:51:38.590Z,27.10
2018-07-07T11:54:06.151Z,27.10
2018-07-07T11:56:33.762Z,27.10
2018-07-07T11:59:01.323Z,27.20
2018-07-07T12:01:28.883Z,27.30
2018-07-07T12:03:56.520Z,27.50
2018-07-07T12:06:24.082Z,27.70
2018-07-07T12:08:51.675Z,27.70
2018-07-07T12:11:19.775Z,27.80
2018-07-07T12:13:47.300Z,27.90
2018-07-07T12:16:14.857Z,28.00
2018-07-07T12:18:42.459Z,28.10
2018-07-07T12:21:10.027Z,28.00
2018-07-07T12:23:38.349Z,28.00
2018-07-07T12:26:06.431Z,28.00
2018-07-07T12:28:33.996Z,28.00
2018-07-07T12:31:01.555Z,28.00
2018-07-07T12:33:30.058Z,28.00
2018-07-07T12:35:57.618Z,28.10
2018-07-07T12:38:25.179Z,28.10
2018-07-07T12:40:52.891Z,28.10
2018-07-07T12:43:20.348Z,28.10
2018-07-07T12:45:47.925Z,28.00
2018-07-07T12:48:15.532Z,28.10
2018-07-07T12:50:43.097Z,28.00
2018-07-07T12:53:10.657Z,28.00
2018-07-07T12:55:38.260Z,28.00
2018-07-07T12:58:05.817Z,27.90
2018-07-07T13:00:33.377Z,27.90
2018-07-07T13:03:00.980Z,27.90
2018-07-07T13:05:28.536Z,27.90
2018-07-07T13:07:56.112Z,28.00
2018-07-07T13:10:24.585Z,28.20
2018-07-07T13:12:52.179Z,28.40
2018-07-07T13:15:19.699Z,28.60
2018-07-07T13:17:47.314Z,28.60
2018-07-07T13:20:15.642Z,28.60
2018-07-07T13:22:43.214Z,28.60
2018-07-07T13:25:10.829Z,28.60
2018-07-07T13:27:38.421Z,28.60
2018-07-07T13:30:05.985Z,28.50
2018-07-07T13:32:33.596Z,28.30
2018-07-07T13:35:01.154Z,28.20
2018-07-07T13:37:29.486Z,28.20
2018-07-07T13:39:57.093Z,28.10
2018-07-07T13:42:25.419Z,28.00
2018-07-07T13:44:52.978Z,27.90
2018-07-07T13:47:20.578Z,27.90
2018-07-07T13:49:48.137Z,27.90
2018-07-07T13:52:15.695Z,27.90
2018-07-07T13:54:44.514Z,27.90
2018-07-07T13:57:12.840Z,28.20
2018-07-07T13:59:40.408Z,28.20
2018-07-07T14:02:08.044Z,28.30
2018-07-07T14:04:35.608Z,28.50
2018-07-07T14:07:03.170Z,28.50
2018-07-07T14:09:30.897Z,28.60
2018-07-07T14:11:58.364Z,28.60
2018-07-07T14:14:26.692Z,28.80
2018-07-07T14:16:54.306Z,28.70
2018-07-07T14:19:21.833Z,28.90
2018-07-07T14:21:49.391Z,29.00
2018-07-07T14:24:16.987Z,29.10
2018-07-07T14:26:44.541Z,29.10
2018-07-07T14:29:12.865Z,29.20
2018-07-07T14:31:40.470Z,29.20
2018-07-07T14:34:08.020Z,29.40
2018-07-07T14:36:35.578Z,29.50
2018-07-07T14:39:03.567Z,29.40
2018-07-07T14:41:31.128Z,29.40
2018-07-07T14:43:58.687Z,29.50
2018-07-07T14:46:26.280Z,29.30
2018-07-07T14:48:53.837Z,29.10
2018-07-07T14:51:21.414Z,29.00
2018-07-07T14:53:50.370Z,29.00
2018-07-07T14:56:16.563Z,29.00
2018-07-07T14:58:44.120Z,29.10
2018-07-07T15:01:11.748Z,29.20
2018-07-07T15:03:39.307Z,29.30
2018-07-07T15:06:06.865Z,29.50
2018-07-07T15:08:34.453Z,29.60
2018-07-07T15:11:02.019Z,29.50
2018-07-07T15:13:29.579Z,29.40
2018-07-07T15:15:57.166Z,29.50
2018-07-07T15:18:24.730Z,29.50
2018-07-07T15:20:52.291Z,29.60
2018-07-07T15:23:19.889Z,29.80
2018-07-07T15:25:47.454Z,29.90
2018-07-07T15:28:15.009Z,30.10
2018-07-07T15:30:42.618Z,30.10
2018-07-07T15:33:10.175Z,29.90
2018-07-07T15:35:37.771Z,29.80
2018-07-07T15:38:05.345Z,29.80
2018-07-07T15:40:33.680Z,29.90
2018-07-07T15:43:01.242Z,29.90
2018-07-07T15:45:28.834Z,30.10
2018-07-07T15:47:57.205Z,30.40
2018-07-07T15:50:24.744Z,30.40
2018-07-07T15:52:52.335Z,30.50
2018-07-07T15:55:20.667Z,30.70
2018-07-07T15:57:48.223Z,30.60
2018-07-07T16:00:15.832Z,30.60
2018-07-07T16:02:43.406Z,30.60
2018-07-07T16:05:11.732Z,30.60
2018-07-07T16:07:39.327Z,30.60
2018-07-07T16:10:06.886Z,30.50
2018-07-07T16:12:34.437Z,30.50
2018-07-07T16:15:02.034Z,30.50
2018-07-07T16:17:29.604Z,30.50
2018-07-07T16:22:33.785Z,30.50
2018-07-07T16:25:01.310Z,30.70
2018-07-07T16:27:29.044Z,30.70
2018-07-07T16:29:57.413Z,30.80
2018-07-07T16:32:24.985Z,30.70
2018-07-07T16:34:53.310Z,30.70
2018-07-07T16:37:20.946Z,30.70
2018-07-07T16:39:48.503Z,30.60
2018-07-07T16:42:16.826Z,30.30
2018-07-07T16:44:46.486Z,30.30
2018-07-07T16:47:12.069Z,30.20
2018-07-07T16:49:39.636Z,30.10
2018-07-07T16:52:07.226Z,30.00
2018-07-07T16:54:35.578Z,29.90
2018-07-07T16:57:03.178Z,29.80
2018-07-07T16:59:30.766Z,29.70
2018-07-07T17:01:58.326Z,29.60
2018-07-07T17:04:25.882Z,29.60
2018-07-07T17:06:53.470Z,29.40
2018-07-07T17:09:21.027Z,29.30
2018-07-07T17:11:48.641Z,29.10
2018-07-07T17:14:16.203Z,29.10
2018-07-07T17:16:44.534Z,29.30
2018-07-07T17:19:12.100Z,29.30
2018-07-07T17:21:39.725Z,29.20
2018-07-07T17:24:07.287Z,29.20
2018-07-07T17:26:34.845Z,29.10
2018-07-07T17:29:02.475Z,29.00
2018-07-07T17:31:30.036Z,29.00
2018-07-07T17:33:58.380Z,28.90
2018-07-07T17:36:26.020Z,28.90
2018-07-07T17:38:53.577Z,28.80
2018-07-07T17:41:21.143Z,28.70
2018-07-07T17:43:48.736Z,28.60
2018-07-07T17:46:16.300Z,28.40
2018-07-07T17:48:43.859Z,28.30
2018-07-07T17:51:11.458Z,28.10
2018-07-07T17:53:39.020Z,27.90
2018-07-07T17:56:06.626Z,27.70
2018-07-07T17:58:34.949Z,27.30
2018-07-07T18:01:02.508Z,27.30
2018-07-07T18:03:30.065Z,27.10
2018-07-07T18:05:58.430Z,26.80
2018-07-07T18:08:26.027Z,26.80
2018-07-07T18:10:53.554Z,26.60
2018-07-07T18:13:21.159Z,26.50
2018-07-07T18:15:48.720Z,26.30
2018-07-07T18:18:16.283Z,26.20
2018-07-07T18:20:43.902Z,26.10
2018-07-07T18:23:11.481Z,26.00
2018-07-07T18:25:39.043Z,25.90
2018-07-07T18:28:08.403Z,25.70
2018-07-07T18:30:35.964Z,25.70
2018-07-07T18:33:03.556Z,25.60
2018-07-07T18:35:31.491Z,25.50
2018-07-07T18:37:59.070Z,25.40
2018-07-07T18:40:26.614Z,25.30
2018-07-07T18:42:54.209Z,25.20
2018-07-07T18:45:21.778Z,25.20
2018-07-07T18:47:50.101Z,25.00
2018-07-07T18:50:17.702Z,25.00
2018-07-07T18:52:45.291Z,25.00
2018-07-07T18:55:12.824Z,24.90
2018-07-07T18:57:40.428Z,24.90
2018-07-07T19:00:07.987Z,24.80
2018-07-07T19:02:35.546Z,24.90
2018-07-07T19:05:03.564Z,24.80
2018-07-07T19:07:31.131Z,24.70
2018-07-07T19:09:58.692Z,24.60
2018-07-07T19:12:26.854Z,24.50
2018-07-07T19:14:54.427Z,24.50
2018-07-07T19:17:21.996Z,24.50
2018-07-07T19:19:49.594Z,24.60
2018-07-07T19:22:35.086Z,24.50
2018-07-07T19:25:02.691Z,24.50
2018-07-07T19:27:30.265Z,24.40
2018-07-07T19:29:57.833Z,24.30
2018-07-07T19:32:25.449Z,24.20
2018-07-07T19:34:53.019Z,24.30
2018-07-07T19:37:20.585Z,24.20
2018-07-07T19:39:48.191Z,24.10
2018-07-07T19:42:15.756Z,24.00
2018-07-07T19:44:43.324Z,23.90
2018-07-07T19:47:10.936Z,23.80
2018-07-07T19:49:38.496Z,23.70
2018-07-07T19:52:06.058Z,23.60
2018-07-07T19:54:33.657Z,23.50
2018-07-07T19:57:01.223Z,23.40
2018-07-07T19:59:29.556Z,23.20
2018-07-07T20:01:57.150Z,23.20
2018-07-07T20:04:24.725Z,23.10
2018-07-07T20:06:53.049Z,23.00
2018-07-07T20:09:20.648Z,23.00
2018-07-07T20:11:48.205Z,22.90
2018-07-07T20:14:15.771Z,22.90
2018-07-07T20:16:43.391Z,22.80
2018-07-07T20:19:10.944Z,22.80
2018-07-07T20:21:50.219Z,22.70
2018-07-07T20:24:17.785Z,22.70
2018-07-07T20:26:45.338Z,22.70
2018-07-07T20:29:12.929Z,22.60
2018-07-07T20:31:40.487Z,22.60
2018-07-07T20:34:08.824Z,22.40
2018-07-07T20:36:36.443Z,22.40
2018-07-07T20:39:04.011Z,22.40
2018-07-07T20:41:31.574Z,22.30
2018-07-07T20:43:59.222Z,22.30
2018-07-07T20:46:27.559Z,22.10
2018-07-07T20:48:55.121Z,22.10
2018-07-07T20:51:22.723Z,22.10
2018-07-07T20:53:51.065Z,22.10
2018-07-07T20:56:18.688Z,22.10
2018-07-07T20:58:46.222Z,22.00
2018-07-07T21:01:13.781Z,22.00
2018-07-07T21:03:42.126Z,21.70
2018-07-07T21:06:09.746Z,21.70
2018-07-07T21:08:37.315Z,21.60
2018-07-07T21:11:04.949Z,21.60
2018-07-07T21:13:32.481Z,21.50
2018-07-07T21:16:00.046Z,21.40
2018-07-07T21:18:27.605Z,21.30
2018-07-07T21:20:55.222Z,21.30
2018-07-07T21:23:22.865Z,21.30
2018-07-07T21:25:50.364Z,21.40
2018-07-07T21:28:18.008Z,21.30
2018-07-07T21:30:45.570Z,21.30
2018-07-07T21:33:13.130Z,21.10
2018-07-07T21:35:41.200Z,21.00
2018-07-07T21:38:08.759Z,20.90
2018-07-07T21:40:36.325Z,20.80
2018-07-07T21:43:04.522Z,20.70
2018-07-07T21:45:32.081Z,20.60
2018-07-07T21:47:59.651Z,20.50
2018-07-07T21:50:27.302Z,20.60
2018-07-07T21:52:54.869Z,20.50
2018-07-07T21:55:22.425Z,20.40
2018-07-07T21:57:50.067Z,20.30
2018-07-07T22:00:17.626Z,20.30
2018-07-07T22:02:48.116Z,20.20
2018-07-07T22:05:15.726Z,20.10
2018-07-07T22:07:43.288Z,20.00
2018-07-07T22:10:10.844Z,19.90
2018-07-07T22:12:38.440Z,19.90
2018-07-07T22:15:06.000Z,19.80
2018-07-07T22:17:33.561Z,19.70
2018-07-07T22:20:01.211Z,19.80
2018-07-07T22:22:28.772Z,19.80
2018-07-07T22:24:56.331Z,19.70
2018-07-07T22:27:23.932Z,19.60
2018-07-07T22:29:52.265Z,19.50
2018-07-07T22:32:19.832Z,19.40
2018-07-07T22:34:47.805Z,19.40
2018-07-07T22:37:15.377Z,19.30
2018-07-07T22:39:42.946Z,19.20
2018-07-07T22:42:10.546Z,19.20
2018-07-07T22:44:38.110Z,19.10
2018-07-07T22:47:05.681Z,19.10
2018-07-07T22:49:33.291Z,19.00
2018-07-07T22:52:00.854Z,18.90
2018-07-07T22:54:28.421Z,18.90
2018-07-07T22:56:56.045Z,18.90
2018-07-07T22:59:23.606Z,19.00
2018-07-07T23:01:51.172Z,18.90
2018-07-07T23:04:18.767Z,18.90
2018-07-07T23:06:46.333Z,18.80
2018-07-07T23:09:13.903Z,18.80
2018-07-07T23:11:41.504Z,18.70
2018-07-07T23:14:09.088Z,18.60
2018-07-07T23:16:36.623Z,18.60
2018-07-07T23:19:04.237Z,18.60
2018-07-07T23:21:31.799Z,18.50
2018-07-07T23:23:59.359Z,18.50
2018-07-07T23:26:26.958Z,18.40
2018-07-07T23:28:54.522Z,18.30
2018-07-07T23:31:22.088Z,18.20
2018-07-07T23:33:49.679Z,18.20
2018-07-07T23:36:17.242Z,18.10
2018-07-07T23:38:44.809Z,18.10
2018-07-07T23:41:12.875Z,18.00
2018-07-07T23:43:40.468Z,18.10
2018-07-07T23:46:07.995Z,18.10
2018-07-07T23:48:35.594Z,18.00
2018-07-07T23:51:03.924Z,18.20
2018-07-07T23:53:31.492Z,18.20
2018-07-07T23:55:59.087Z,18.20
2018-07-07T23:58:26.656Z,18.10
